createdAt,value
2023-01-19T00:01:48.811Z,14.70
2023-01-19T00:06:51.633Z,13.55
2023-01-19T00:11:53.499Z,12.75
2023-01-19T00:16:55.002Z,11.60
2023-01-19T00:21:57.870Z,11.25
2023-01-19T00:26:59.556Z,17.45
2023-01-19T00:32:01.500Z,13.75
2023-01-19T00:37:04.386Z,11.02
2023-01-19T00:42:05.962Z,15.05
2023-01-19T00:47:07.463Z,14.00
2023-01-19T00:52:10.349Z,12.93
2023-01-19T00:57:12.086Z,14.18
2023-01-19T01:02:13.858Z,15.02
2023-01-19T01:07:16.812Z,11.05
2023-01-19T01:12:18.460Z,15.20
2023-01-19T01:17:20.023Z,12.48
2023-01-19T01:22:22.964Z,17.00
2023-01-19T01:27:24.531Z,17.65
2023-01-19T01:32:26.067Z,14.80
2023-01-19T01:37:29.073Z,14.48
2023-01-19T01:42:32.140Z,18.55
2023-01-19T01:47:40.629Z,15.48
2023-01-19T01:53:07.615Z,16.15
2023-01-19T01:58:11.229Z,15.47
2023-01-19T02:03:12.743Z,14.77
2023-01-19T02:08:19.884Z,18.35
2023-01-19T02:13:21.993Z,18.58
2023-01-19T02:18:27.390Z,16.98
2023-01-19T02:23:41.438Z,19.00
2023-01-19T02:28:46.542Z,15.90
2023-01-19T02:33:48.037Z,20.27
2023-01-19T02:38:53.420Z,21.27
2023-01-19T02:43:57.953Z,22.98
2023-01-19T02:48:59.614Z,21.60
2023-01-19T02:54:24.376Z,22.70
2023-01-19T02:59:42.894Z,23.30
2023-01-19T03:05:01.228Z,21.90
2023-01-19T03:10:07.994Z,20.33
2023-01-19T03:15:17.463Z,25.48
2023-01-19T03:20:23.365Z,21.92
2023-01-19T03:25:31.327Z,24.27
2023-01-19T03:30:39.222Z,23.98
2023-01-19T03:35:45.744Z,23.77
2023-01-19T03:40:49.835Z,25.47
2023-01-19T03:45:53.096Z,22.80
2023-01-19T03:50:55.457Z,20.55
2023-01-19T03:55:58.438Z,26.25
2023-01-19T04:01:00.087Z,25.27
2023-01-19T04:06:02.088Z,22.63
2023-01-19T04:11:05.126Z,25.38
2023-01-19T04:16:07.101Z,26.15
2023-01-19T04:21:08.738Z,23.92
2023-01-19T04:26:11.880Z,20.10
2023-01-19T04:31:13.506Z,19.05
2023-01-19T04:36:15.120Z,19.83
2023-01-19T04:41:17.946Z,22.42
2023-01-19T04:46:19.559Z,22.27
2023-01-19T04:51:21.203Z,20.52
2023-01-19T04:56:24.060Z,22.63
2023-01-19T05:01:25.786Z,21.00
2023-01-19T05:06:27.487Z,17.70
2023-01-19T05:11:30.396Z,22.23
2023-01-19T05:16:32.255Z,19.83
2023-01-19T05:21:33.854Z,17.42
2023-01-19T05:26:36.791Z,21.25
2023-01-19T05:31:38.333Z,20.67
2023-01-19T05:36:40.016Z,24.95
2023-01-19T05:41:42.886Z,20.23
2023-01-19T05:46:44.521Z,20.50
2023-01-19T05:51:46.151Z,21.10
2023-01-19T05:56:49.023Z,22.20
2023-01-19T06:01:50.995Z,19.95
2023-01-19T06:06:52.532Z,30.40
2023-01-19T06:11:55.388Z,23.38
2023-01-19T06:16:56.882Z,25.67
2023-01-19T06:21:58.358Z,25.55
2023-01-19T06:27:01.238Z,27.10
2023-01-19T06:32:03.033Z,21.25
2023-01-19T06:37:04.655Z,27.75
2023-01-19T06:42:08.053Z,21.77
2023-01-19T06:47:15.518Z,21.90
2023-01-19T06:52:17.775Z,20.88
2023-01-19T06:57:20.688Z,23.10
2023-01-19T07:02:26.654Z,19.92
2023-01-19T07:07:29.874Z,26.75
2023-01-19T07:12:32.685Z,21.02
2023-01-19T07:17:34.223Z,24.30
2023-01-19T07:22:35.686Z,20.23
2023-01-19T07:27:38.673Z,22.55
2023-01-19T07:32:40.156Z,21.20
2023-01-19T07:37:41.721Z,19.58
2023-01-19T07:42:47.395Z,21.00
2023-01-19T07:47:49.469Z,22.05
2023-01-19T07:52:51.370Z,34.58
2023-01-19T07:57:54.272Z,24.42
2023-01-19T08:02:59.430Z,16.08
2023-01-19T08:08:01.291Z,17.98
2023-01-19T08:13:04.227Z,16.13
2023-01-19T08:18:05.894Z,17.73
2023-01-19T08:23:07.413Z,15.18
2023-01-19T08:28:12.317Z,14.32
2023-01-19T08:33:14.107Z,15.82
2023-01-19T08:38:15.823Z,12.43
2023-01-19T08:43:18.666Z,15.10
2023-01-19T08:48:21.799Z,13.85
2023-01-19T08:53:23.733Z,10.75
2023-01-19T08:58:27.068Z,10.82
2023-01-19T09:03:28.670Z,11.27
2023-01-19T09:08:30.405Z,11.20
2023-01-19T09:13:33.350Z,9.48
2023-01-19T09:18:35.732Z,11.27
2023-01-19T09:23:37.654Z,9.60
2023-01-19T09:28:40.498Z,10.50
2023-01-19T09:33:42.077Z,8.98
2023-01-19T09:38:43.678Z,9.30
2023-01-19T09:43:51.403Z,11.15
2023-01-19T09:48:54.143Z,19.73
2023-01-19T09:54:04.988Z,8.43
2023-01-19T09:59:19.477Z,8.82
2023-01-19T10:04:31.142Z,10.63
2023-01-19T10:09:40.670Z,12.32
2023-01-19T10:14:52.463Z,12.00
2023-01-19T10:19:57.382Z,16.98
2023-01-19T10:25:02.399Z,12.02
2023-01-19T10:30:08.694Z,11.98
2023-01-19T10:35:15.173Z,14.50
2023-01-19T10:40:26.618Z,15.77
2023-01-19T10:45:31.271Z,13.20
2023-01-19T10:50:34.970Z,16.42
2023-01-19T10:55:38.707Z,13.73
2023-01-19T11:00:42.986Z,14.05
2023-01-19T11:05:44.592Z,10.90
2023-01-19T11:10:53.771Z,13.10
2023-01-19T11:15:58.824Z,13.18
2023-01-19T11:21:03.320Z,14.50
2023-01-19T11:26:05.792Z,13.95
2023-01-19T11:31:20.199Z,15.80
2023-01-19T11:36:25.128Z,16.27
2023-01-19T11:41:28.751Z,18.27
2023-01-19T11:46:33.722Z,14.80
2023-01-19T11:51:49.091Z,16.05
2023-01-19T11:56:53.720Z,15.73
2023-01-19T12:02:00.274Z,14.45
2023-01-19T12:07:05.995Z,19.23
2023-01-19T12:12:12.736Z,16.80
2023-01-19T12:17:38.160Z,21.03
2023-01-19T12:22:48.505Z,19.35
2023-01-19T12:27:51.588Z,17.65
2023-01-19T12:33:21.968Z,18.42
2023-01-19T12:38:36.007Z,19.33
2023-01-19T12:43:37.575Z,15.77
2023-01-19T12:48:40.630Z,13.55
2023-01-19T12:53:51.889Z,13.25
2023-01-19T12:58:53.395Z,12.38
2023-01-19T13:04:01.409Z,14.43
2023-01-19T13:09:02.976Z,10.95
2023-01-19T13:14:33.881Z,14.82
2023-01-19T13:19:44.853Z,16.80
2023-01-19T13:25:05.835Z,13.98
2023-01-19T13:30:15.548Z,14.38
2023-01-19T13:35:20.363Z,10.98
2023-01-19T13:40:24.473Z,14.93
2023-01-19T13:45:32.268Z,13.25
2023-01-19T13:50:37.374Z,10.95
2023-01-19T13:55:38.908Z,16.80
2023-01-19T14:00:45.639Z,15.52
2023-01-19T14:05:50.483Z,17.13
2023-01-19T14:11:01.760Z,22.08
2023-01-19T14:16:07.066Z,23.92
2023-01-19T14:21:12.556Z,14.07
2023-01-19T14:26:46.823Z,13.98
2023-01-19T14:31:50.174Z,14.05
2023-01-19T14:36:56.529Z,25.83
2023-01-19T14:42:00.619Z,12.23
2023-01-19T14:47:06.562Z,15.25
2023-01-19T14:52:20.839Z,14.35
2023-01-19T14:57:22.646Z,11.77
2023-01-19T15:02:24.222Z,9.52
2023-01-19T15:07:27.941Z,11.52
2023-01-19T15:12:35.693Z,15.68
2023-01-19T15:17:37.333Z,14.40
2023-01-19T15:22:40.168Z,13.73
2023-01-19T15:27:42.007Z,10.10
2023-01-19T15:32:43.940Z,28.00
2023-01-19T15:37:47.608Z,12.52
2023-01-19T15:42:49.928Z,14.38
2023-01-19T15:47:51.515Z,11.52
2023-01-19T15:52:54.449Z,16.38
2023-01-19T15:57:56.460Z,20.33
2023-01-19T16:02:58.438Z,17.75
2023-01-19T16:08:02.018Z,23.27
2023-01-19T16:13:03.988Z,21.88
2023-01-19T16:18:05.935Z,24.60
2023-01-19T16:23:14.950Z,22.00
2023-01-19T16:28:16.948Z,27.85
2023-01-19T16:33:18.814Z,41.33
2023-01-19T16:38:23.251Z,41.08
2023-01-19T16:43:26.295Z,35.10
2023-01-19T16:48:29.207Z,46.40
2023-01-19T16:53:33.397Z,21.05
2023-01-19T16:58:53.611Z,19.85
2023-01-19T17:03:55.764Z,17.35
2023-01-19T17:08:58.952Z,18.02
2023-01-19T17:14:02.852Z,14.82
2023-01-19T17:19:06.420Z,19.52
2023-01-19T17:24:09.285Z,18.10
2023-01-19T17:29:10.793Z,18.20
2023-01-19T17:34:12.344Z,20.75
2023-01-19T17:39:15.691Z,23.58
2023-01-19T17:44:17.323Z,24.83
2023-01-19T17:49:19.013Z,35.28
2023-01-19T17:54:22.071Z,38.08
2023-01-19T17:59:23.585Z,19.17
2023-01-19T18:04:25.191Z,19.25
2023-01-19T18:09:28.175Z,21.42
2023-01-19T18:14:29.754Z,37.75
2023-01-19T18:19:31.405Z,35.80
2023-01-19T18:24:34.488Z,23.10
2023-01-19T18:29:36.035Z,24.48
2023-01-19T18:34:37.813Z,25.50
2023-01-19T18:39:40.672Z,27.52
2023-01-19T18:44:42.176Z,20.85
2023-01-19T18:49:43.784Z,23.75
2023-01-19T18:54:47.756Z,20.30
2023-01-19T18:59:49.410Z,22.65
2023-01-19T19:04:51.016Z,22.25
2023-01-19T19:09:53.937Z,24.08
2023-01-19T19:14:55.490Z,23.80
2023-01-19T19:19:57.908Z,30.30
2023-01-19T19:25:00.917Z,25.00
2023-01-19T19:30:03.216Z,21.83
2023-01-19T19:35:05.581Z,20.85
2023-01-19T19:40:10.126Z,20.15
2023-01-19T19:45:12.432Z,18.73
2023-01-19T19:50:14.375Z,23.77
2023-01-19T19:55:17.736Z,33.47
2023-01-19T20:00:20.053Z,26.50
2023-01-19T20:05:21.550Z,23.25
2023-01-19T20:10:24.394Z,21.48
2023-01-19T20:15:26.063Z,22.38
2023-01-19T20:20:27.667Z,26.63
2023-01-19T20:25:30.602Z,26.05
2023-01-19T20:30:32.321Z,28.52
2023-01-19T20:35:34.020Z,40.97
2023-01-19T20:40:36.923Z,47.42
2023-01-19T20:45:38.512Z,108.20
2023-01-19T20:50:40.103Z,117.38
2023-01-19T20:55:43.083Z,61.60
2023-01-19T21:00:44.627Z,28.60
2023-01-19T21:05:47.018Z,26.77
2023-01-19T21:10:49.910Z,23.85
2023-01-19T21:15:51.498Z,23.15
2023-01-19T21:20:53.374Z,26.40
2023-01-19T21:25:58.204Z,24.13
2023-01-19T21:31:07.214Z,24.40
2023-01-19T21:36:10.529Z,23.55
2023-01-19T21:41:14.941Z,50.88
2023-01-19T21:46:19.126Z,65.50
2023-01-19T21:51:20.693Z,23.20
2023-01-19T21:56:23.604Z,24.10
2023-01-19T22:01:25.460Z,24.88
2023-01-19T22:06:27.686Z,26.58
2023-01-19T22:11:31.110Z,23.65
2023-01-19T22:16:32.779Z,22.50
2023-01-19T22:21:35.287Z,21.85
2023-01-19T22:26:38.630Z,20.17
2023-01-19T22:31:40.531Z,23.65
2023-01-19T22:36:42.611Z,29.55
2023-01-19T22:41:46.744Z,18.02
2023-01-19T22:46:49.233Z,24.67
2023-01-19T22:51:50.733Z,25.38
2023-01-19T22:56:53.786Z,23.00
2023-01-19T23:01:55.486Z,25.88
2023-01-19T23:06:57.057Z,29.33
2023-01-19T23:12:00.227Z,20.85
2023-01-19T23:17:01.794Z,24.58
2023-01-19T23:22:03.272Z,24.98
2023-01-19T23:27:06.125Z,20.92
2023-01-19T23:32:07.625Z,14.45
2023-01-19T23:37:09.163Z,21.63
2023-01-19T23:42:12.070Z,25.55
2023-01-19T23:47:13.572Z,35.00
2023-01-19T23:52:15.097Z,18.00
2023-01-19T23:57:18.020Z,26.83
